createdAt,value
2018-04-15T00:01:03.570Z,61.37
2018-04-15T00:03:29.820Z,51.87
2018-04-15T00:05:56.079Z,48.60
2018-04-15T00:08:23.035Z,52.43
2018-04-15T00:10:49.302Z,59.57
2018-04-15T00:13:15.536Z,52.57
2018-04-15T00:15:41.821Z,54.90
2018-04-15T00:18:08.043Z,50.70
2018-04-15T00:20:35.115Z,51.90
2018-04-15T00:23:01.344Z,54.57
2018-04-15T00:25:27.625Z,51.67
2018-04-15T00:27:54.064Z,46.00
2018-04-15T00:30:21.027Z,47.23
2018-04-15T00:32:47.979Z,57.37
2018-04-15T00:35:14.942Z,59.43
2018-04-15T00:37:41.177Z,54.90
2018-04-15T00:40:07.398Z,57.07
2018-04-15T00:42:33.693Z,73.87
2018-04-15T00:45:01.104Z,75.20
2018-04-15T00:47:27.449Z,58.00
2018-04-15T00:49:53.692Z,55.30
2018-04-15T00:52:19.916Z,54.53
2018-04-15T00:54:46.289Z,45.27
2018-04-15T00:57:13.253Z,73.97
2018-04-15T00:59:39.754Z,63.53
2018-04-15T01:02:06.828Z,59.27
2018-04-15T01:04:33.264Z,57.47
2018-04-15T01:06:59.573Z,56.60
2018-04-15T01:09:26.699Z,56.20
2018-04-15T01:11:52.951Z,51.33
2018-04-15T01:14:19.976Z,50.83
2018-04-15T01:16:46.261Z,55.63
2018-04-15T01:19:12.513Z,46.70
2018-04-15T01:21:38.724Z,54.70
2018-04-15T01:24:05.077Z,56.57
2018-04-15T01:26:31.858Z,58.00
2018-04-15T01:28:58.820Z,48.53
2018-04-15T01:31:25.780Z,49.63
2018-04-15T01:33:52.032Z,51.80
2018-04-15T01:36:18.240Z,53.73
2018-04-15T01:38:44.465Z,51.97
2018-04-15T01:41:10.742Z,52.03
2018-04-15T01:43:36.982Z,55.53
2018-04-15T01:46:03.742Z,55.13
2018-04-15T01:48:30.699Z,51.77
2018-04-15T01:50:57.664Z,53.20
2018-04-15T01:53:24.396Z,50.80
2018-04-15T01:55:50.905Z,54.77
2018-04-15T01:58:17.909Z,50.23
2018-04-15T02:00:44.307Z,56.53
2018-04-15T02:03:10.551Z,49.40
2018-04-15T02:05:36.833Z,52.93
2018-04-15T02:08:03.091Z,49.77
2018-04-15T02:10:29.335Z,57.57
2018-04-15T02:12:55.654Z,57.57
2018-04-15T02:15:21.924Z,45.03
2018-04-15T02:17:49.236Z,51.67
2018-04-15T02:20:15.504Z,49.60
2018-04-15T02:22:42.526Z,50.20
2018-04-15T02:25:08.876Z,45.00
2018-04-15T02:27:35.103Z,55.87
2018-04-15T02:30:01.745Z,49.17
2018-04-15T02:32:27.984Z,52.27
2018-04-15T02:34:54.273Z,51.77
2018-04-15T02:37:21.286Z,54.53
2018-04-15T02:39:47.561Z,53.37
2018-04-15T02:42:13.809Z,55.37
2018-04-15T02:44:40.045Z,47.40
2018-04-15T02:47:06.326Z,57.97
2018-04-15T02:49:33.351Z,57.07
2018-04-15T02:51:59.627Z,55.50
2018-04-15T02:54:25.851Z,64.10
2018-04-15T02:56:52.126Z,57.20
2018-04-15T02:59:18.377Z,53.20
2018-04-15T03:01:44.595Z,78.33
2018-04-15T03:04:10.885Z,69.43
2018-04-15T03:06:37.259Z,63.50
2018-04-15T03:09:05.226Z,60.07
2018-04-15T03:11:31.449Z,71.27
2018-04-15T03:13:57.692Z,78.73
2018-04-15T03:16:23.976Z,83.73
2018-04-15T03:18:50.348Z,67.43
2018-04-15T03:21:16.584Z,70.17
2018-04-15T03:23:42.855Z,90.10
2018-04-15T03:26:09.085Z,88.33
2018-04-15T03:28:35.368Z,65.30
2018-04-15T03:31:01.655Z,65.60
2018-04-15T03:33:27.949Z,78.37
2018-04-15T03:35:54.240Z,82.03
2018-04-15T03:38:20.480Z,73.23
2018-04-15T03:40:46.737Z,79.63
2018-04-15T03:43:13.747Z,71.47
2018-04-15T03:45:40.025Z,83.07
2018-04-15T03:48:06.743Z,87.40
2018-04-15T03:50:32.961Z,63.50
2018-04-15T03:52:59.267Z,69.90
2018-04-15T03:55:25.506Z,75.63
2018-04-15T03:57:51.789Z,77.40
2018-04-15T04:00:18.093Z,77.10
2018-04-15T04:02:44.330Z,80.67
2018-04-15T04:05:11.465Z,84.27
2018-04-15T04:07:37.761Z,85.07
2018-04-15T04:10:03.995Z,79.43
2018-04-15T04:12:30.322Z,80.43
2018-04-15T04:14:56.953Z,79.87
2018-04-15T04:17:35.626Z,93.30
2018-04-15T04:20:14.099Z,76.73
2018-04-15T04:22:52.538Z,92.17
2018-04-15T04:25:31.036Z,83.63
2018-04-15T04:27:57.262Z,73.70
2018-04-15T04:30:23.478Z,48.13
2018-04-15T04:32:49.749Z,62.80
2018-04-15T04:35:15.980Z,62.47
2018-04-15T04:37:42.960Z,46.23
2018-04-15T04:40:09.252Z,46.03
2018-04-15T04:42:35.476Z,70.53
2018-04-15T04:45:01.902Z,69.23
2018-04-15T04:47:28.121Z,87.47
2018-04-15T04:49:54.351Z,89.73
2018-04-15T04:52:20.626Z,43.70
2018-04-15T04:54:47.723Z,82.60
2018-04-15T04:57:13.958Z,99.47
2018-04-15T04:59:40.228Z,83.67
2018-04-15T05:02:06.467Z,97.37
2018-04-15T05:04:33.464Z,83.50
2018-04-15T05:06:59.916Z,89.67
2018-04-15T05:09:26.166Z,102.30
2018-04-15T05:11:52.497Z,100.93
2018-04-15T05:14:18.705Z,113.67
2018-04-15T05:16:44.971Z,106.43
2018-04-15T05:19:11.961Z,112.80
2018-04-15T05:21:38.221Z,125.03
2018-04-15T05:24:04.500Z,88.97
2018-04-15T05:26:30.787Z,61.60
2018-04-15T05:28:57.014Z,81.20
2018-04-15T05:31:23.234Z,85.30
2018-04-15T05:33:49.633Z,72.57
2018-04-15T05:36:15.871Z,73.70
2018-04-15T05:38:42.169Z,102.90
2018-04-15T05:41:09.148Z,101.27
2018-04-15T05:43:35.475Z,85.93
2018-04-15T05:46:01.734Z,87.80
2018-04-15T05:48:28.061Z,94.37
2018-04-15T05:50:54.398Z,78.00
2018-04-15T05:53:20.713Z,59.60
2018-04-15T05:55:46.937Z,107.23
2018-04-15T05:58:13.279Z,108.23
2018-04-15T06:00:39.557Z,100.07
2018-04-15T06:03:05.940Z,89.13
2018-04-15T06:05:32.212Z,98.80
2018-04-15T06:07:59.244Z,100.10
2018-04-15T06:10:25.610Z,95.23
2018-04-15T06:12:51.865Z,97.33
2018-04-15T06:15:18.120Z,94.03
2018-04-15T06:17:44.409Z,106.00
2018-04-15T06:20:10.717Z,94.77
2018-04-15T06:22:37.731Z,101.47
2018-04-15T06:25:03.977Z,77.70
2018-04-15T06:27:30.212Z,94.03
2018-04-15T06:29:57.192Z,98.37
2018-04-15T06:32:23.421Z,103.17
2018-04-15T06:34:49.748Z,103.43
2018-04-15T06:37:16.022Z,103.40
2018-04-15T06:39:42.334Z,112.97
2018-04-15T06:42:08.659Z,97.63
2018-04-15T06:44:34.928Z,99.97
2018-04-15T06:47:01.566Z,89.23
2018-04-15T06:49:27.833Z,71.30
2018-04-15T06:51:54.137Z,125.10
2018-04-15T06:54:20.413Z,111.33
2018-04-15T06:56:46.701Z,108.90
2018-04-15T06:59:13.726Z,109.80
2018-04-15T07:01:40.005Z,87.20
2018-04-15T07:04:06.457Z,81.33
2018-04-15T07:06:32.771Z,91.13
2018-04-15T07:08:59.735Z,75.60
2018-04-15T07:11:25.948Z,75.93
2018-04-15T07:13:52.267Z,74.80
2018-04-15T07:16:18.526Z,77.53
2018-04-15T07:18:44.760Z,77.00
2018-04-15T07:21:11.140Z,91.40
2018-04-15T07:23:38.200Z,64.37
2018-04-15T07:26:05.144Z,82.57
2018-04-15T07:28:32.189Z,87.83
2018-04-15T07:30:59.241Z,91.87
2018-04-15T07:33:26.217Z,91.03
2018-04-15T07:35:52.623Z,76.47
2018-04-15T07:38:19.678Z,90.83
2018-04-15T07:40:46.021Z,93.77
2018-04-15T07:43:12.304Z,107.50
2018-04-15T07:45:38.527Z,81.67
2018-04-15T07:48:04.755Z,116.43
2018-04-15T07:50:31.002Z,103.93
2018-04-15T07:52:57.759Z,120.27
2018-04-15T07:55:24.735Z,110.47
2018-04-15T07:57:51.019Z,114.70
2018-04-15T08:00:17.571Z,131.17
2018-04-15T08:02:44.584Z,117.10
2018-04-15T08:05:11.754Z,67.10
2018-04-15T08:07:38.047Z,146.57
2018-04-15T08:10:04.309Z,135.17
2018-04-15T08:12:30.699Z,124.13
2018-04-15T08:14:56.947Z,122.73
2018-04-15T08:17:23.175Z,119.57
2018-04-15T08:19:49.497Z,117.93
2018-04-15T08:22:15.817Z,116.13
2018-04-15T08:24:42.077Z,150.27
2018-04-15T08:27:08.320Z,98.43
2018-04-15T08:29:34.528Z,104.20
2018-04-15T08:32:00.853Z,119.27
2018-04-15T08:34:27.109Z,93.67
2018-04-15T08:36:54.048Z,109.53
2018-04-15T08:39:20.328Z,115.13
2018-04-15T08:41:46.565Z,82.50
2018-04-15T08:44:12.775Z,106.60
2018-04-15T08:46:39.754Z,138.60
2018-04-15T08:49:06.336Z,117.73
2018-04-15T08:51:33.373Z,114.07
2018-04-15T08:53:59.666Z,113.77
2018-04-15T08:56:26.481Z,122.70
2018-04-15T08:58:52.753Z,133.37
2018-04-15T09:01:19.017Z,123.87
2018-04-15T09:03:46.048Z,128.67
2018-04-15T09:06:12.556Z,110.93
2018-04-15T09:08:38.804Z,133.47
2018-04-15T09:11:05.041Z,115.53
2018-04-15T09:13:31.296Z,122.33
2018-04-15T09:15:58.408Z,107.87
2018-04-15T09:18:24.690Z,100.50
2018-04-15T09:20:50.972Z,115.13
2018-04-15T09:23:17.435Z,97.07
2018-04-15T09:25:43.840Z,110.07
2018-04-15T09:28:10.960Z,100.73
2018-04-15T09:30:43.449Z,130.23
2018-04-15T09:33:10.713Z,109.70
2018-04-15T09:35:38.602Z,98.67
2018-04-15T09:38:12.363Z,94.30
2018-04-15T09:40:54.122Z,107.90
2018-04-15T09:43:22.851Z,80.60
2018-04-15T09:45:52.548Z,119.80
2018-04-15T09:48:19.566Z,102.60
2018-04-15T09:50:46.802Z,102.37
2018-04-15T09:53:13.922Z,103.77
2018-04-15T09:55:40.293Z,86.00
2018-04-15T09:58:07.361Z,108.70
2018-04-15T10:00:33.698Z,94.20
2018-04-15T10:02:59.967Z,89.13
2018-04-15T10:05:26.198Z,98.97
2018-04-15T10:07:52.687Z,89.63
2018-04-15T10:10:20.176Z,96.63
2018-04-15T10:12:46.428Z,105.10
2018-04-15T10:15:12.744Z,121.27
2018-04-15T10:17:39.043Z,92.30
2018-04-15T10:20:05.430Z,84.60
2018-04-15T10:22:31.807Z,111.87
2018-04-15T10:24:58.414Z,89.03
2018-04-15T10:27:25.438Z,76.67
2018-04-15T10:29:51.876Z,112.17
2018-04-15T10:32:18.294Z,123.13
2018-04-15T10:34:44.697Z,110.27
2018-04-15T10:37:11.622Z,113.90
2018-04-15T10:39:38.648Z,120.27
2018-04-15T10:42:04.990Z,111.33
2018-04-15T10:44:32.195Z,107.57
2018-04-15T10:46:58.568Z,109.10
2018-04-15T10:49:24.830Z,90.03
2018-04-15T10:51:51.213Z,82.50
2018-04-15T10:54:17.489Z,105.17
2018-04-15T10:56:43.745Z,118.13
2018-04-15T10:59:10.711Z,111.73
2018-04-15T11:01:36.987Z,124.80
2018-04-15T11:04:03.649Z,116.13
2018-04-15T11:06:30.796Z,106.30
2018-04-15T11:08:57.789Z,134.57
2018-04-15T11:11:25.074Z,93.70
2018-04-15T11:13:51.338Z,118.93
2018-04-15T11:16:18.343Z,112.60
2018-04-15T11:18:50.051Z,123.83
2018-04-15T11:21:16.795Z,85.33
2018-04-15T11:23:45.861Z,96.07
2018-04-15T11:26:12.118Z,91.23
2018-04-15T11:28:38.392Z,82.00
2018-04-15T11:31:05.040Z,97.53
2018-04-15T11:33:31.268Z,102.53
2018-04-15T11:35:57.511Z,144.80
2018-04-15T11:38:23.831Z,100.77
2018-04-15T11:40:50.153Z,78.77
2018-04-15T11:43:16.436Z,104.97
2018-04-15T11:45:43.488Z,63.90
2018-04-15T11:48:10.593Z,67.33
2018-04-15T11:50:38.089Z,68.93
2018-04-15T11:53:04.629Z,73.13
2018-04-15T11:55:31.661Z,130.37
2018-04-15T11:57:58.250Z,63.20
2018-04-15T12:00:24.737Z,79.30
2018-04-15T12:02:51.095Z,78.17
2018-04-15T12:05:18.377Z,56.17
2018-04-15T12:07:44.712Z,52.90
2018-04-15T12:10:10.991Z,52.67
2018-04-15T12:12:37.305Z,52.80
2018-04-15T12:15:03.941Z,50.73
2018-04-15T12:17:30.253Z,47.90
2018-04-15T12:19:56.893Z,43.37
2018-04-15T12:22:23.193Z,38.97
2018-04-15T12:24:50.433Z,45.70
2018-04-15T12:27:16.706Z,48.57
2018-04-15T12:29:43.006Z,36.70
2018-04-15T12:32:09.265Z,36.90
2018-04-15T12:34:35.533Z,36.77
2018-04-15T12:37:01.836Z,34.07
2018-04-15T12:39:28.091Z,40.30
2018-04-15T12:41:54.420Z,30.57
2018-04-15T12:44:20.724Z,35.60
2018-04-15T12:46:47.091Z,38.00
2018-04-15T12:49:13.362Z,33.57
2018-04-15T12:51:39.599Z,31.80
2018-04-15T12:54:05.972Z,29.20
2018-04-15T12:56:32.197Z,30.07
2018-04-15T12:58:59.080Z,27.33
2018-04-15T13:01:26.151Z,30.63
2018-04-15T13:03:52.453Z,30.40
2018-04-15T13:06:19.500Z,30.57
2018-04-15T13:08:46.503Z,31.87
2018-04-15T13:11:12.859Z,27.93
2018-04-15T13:13:39.113Z,32.17
2018-04-15T13:16:06.193Z,26.47
2018-04-15T13:18:32.449Z,29.67
2018-04-15T13:20:59.838Z,29.93
2018-04-15T13:23:26.193Z,28.53
2018-04-15T13:25:52.454Z,26.73
2018-04-15T13:28:19.165Z,27.47
2018-04-15T13:30:45.416Z,29.20
2018-04-15T13:33:11.671Z,29.27
2018-04-15T13:35:37.930Z,24.67
2018-04-15T13:38:04.986Z,27.30
2018-04-15T13:40:32.172Z,27.80
2018-04-15T13:42:58.402Z,27.50
2018-04-15T13:45:24.634Z,30.17
2018-04-15T13:47:50.908Z,24.63
2018-04-15T13:50:17.329Z,26.37
2018-04-15T13:52:43.570Z,29.87
2018-04-15T13:55:09.841Z,29.37
2018-04-15T13:57:36.798Z,29.13
2018-04-15T14:00:03.120Z,31.30
2018-04-15T14:02:29.345Z,29.13
2018-04-15T14:04:55.776Z,27.50
2018-04-15T14:07:22.786Z,26.33
2018-04-15T14:09:49.237Z,29.33
2018-04-15T14:12:16.282Z,24.00
2018-04-15T14:14:43.283Z,28.93
2018-04-15T14:17:09.546Z,24.67
2018-04-15T14:19:36.586Z,28.30
2018-04-15T14:22:03.644Z,28.13
2018-04-15T14:24:30.447Z,28.87
2018-04-15T14:26:56.711Z,28.93
2018-04-15T14:29:22.963Z,23.00
2018-04-15T14:31:50.030Z,25.70
2018-04-15T14:34:16.391Z,24.47
2018-04-15T14:36:42.638Z,25.90
2018-04-15T14:39:09.054Z,24.10
2018-04-15T14:41:35.506Z,22.60
2018-04-15T14:44:01.767Z,25.77
2018-04-15T14:46:28.127Z,23.33
2018-04-15T14:48:54.425Z,25.00
2018-04-15T14:51:20.652Z,25.50
2018-04-15T14:53:46.930Z,27.43
2018-04-15T14:56:13.183Z,25.03
2018-04-15T14:58:39.504Z,24.17
2018-04-15T15:01:05.770Z,23.97
2018-04-15T15:03:32.073Z,21.47
2018-04-15T15:05:58.331Z,19.70
2018-04-15T15:08:24.610Z,22.40
2018-04-15T15:10:50.893Z,21.10
2018-04-15T15:13:17.168Z,21.03
2018-04-15T15:15:43.501Z,20.77
2018-04-15T15:18:09.811Z,20.43
2018-04-15T15:20:36.091Z,24.33
2018-04-15T15:23:02.398Z,25.73
2018-04-15T15:25:29.475Z,27.13
2018-04-15T15:27:56.318Z,24.30
2018-04-15T15:30:34.824Z,25.47
2018-04-15T15:33:02.136Z,24.07
2018-04-15T15:35:29.159Z,25.37
2018-04-15T15:37:55.452Z,26.23
2018-04-15T15:40:21.752Z,25.20
2018-04-15T15:42:47.979Z,25.67
2018-04-15T15:45:14.605Z,27.17
2018-04-15T15:47:41.597Z,25.03
2018-04-15T15:50:07.831Z,27.53
2018-04-15T15:52:34.093Z,29.50
2018-04-15T15:55:00.382Z,30.37
2018-04-15T15:57:27.079Z,24.10
2018-04-15T15:59:54.095Z,24.20
2018-04-15T16:02:20.450Z,25.00
2018-04-15T16:04:47.482Z,24.57
2018-04-15T16:07:13.772Z,20.90
2018-04-15T16:09:40.677Z,25.00
2018-04-15T16:12:08.654Z,23.33
2018-04-15T16:14:35.753Z,22.10
2018-04-15T16:17:01.969Z,27.80
2018-04-15T16:19:28.268Z,27.00
2018-04-15T16:21:55.271Z,24.80
2018-04-15T16:24:21.692Z,23.87
2018-04-15T16:26:48.405Z,23.93
2018-04-15T16:29:14.700Z,25.60
2018-04-15T16:31:44.416Z,23.83
2018-04-15T16:34:10.867Z,21.67
2018-04-15T16:36:37.959Z,21.50
2018-04-15T16:39:06.467Z,21.70
2018-04-15T16:41:40.650Z,24.63
2018-04-15T16:44:07.185Z,24.10
2018-04-15T16:46:33.448Z,24.07
2018-04-15T16:48:59.660Z,20.77
2018-04-15T16:51:25.920Z,24.27
2018-04-15T16:53:52.249Z,24.30
2018-04-15T16:56:18.502Z,21.00
2018-04-15T16:58:45.763Z,19.23
2018-04-15T17:01:13.058Z,22.90
2018-04-15T17:03:39.283Z,24.43
2018-04-15T17:06:05.752Z,22.70
2018-04-15T17:08:32.002Z,22.63
2018-04-15T17:10:59.061Z,22.20
2018-04-15T17:13:25.743Z,22.57
2018-04-15T17:15:52.337Z,25.70
2018-04-15T17:18:19.307Z,19.93
2018-04-15T17:20:45.569Z,22.57
2018-04-15T17:23:11.903Z,20.83
2018-04-15T17:25:38.249Z,21.73
2018-04-15T17:28:04.592Z,23.63
2018-04-15T17:30:30.820Z,21.70
2018-04-15T17:32:57.828Z,25.97
2018-04-15T17:35:46.483Z,23.07
2018-04-15T17:38:13.950Z,22.80
2018-04-15T17:40:40.261Z,23.13
2018-04-15T17:43:06.505Z,20.37
2018-04-15T17:45:32.772Z,20.97
2018-04-15T17:47:59.810Z,25.20
2018-04-15T17:50:26.241Z,22.97
2018-04-15T17:52:52.515Z,19.93
2018-04-15T17:55:18.782Z,21.43
2018-04-15T17:57:45.109Z,26.20
2018-04-15T18:00:11.437Z,23.27
2018-04-15T18:02:39.055Z,21.60
2018-04-15T18:05:06.037Z,21.70
2018-04-15T18:07:32.333Z,24.60
2018-04-15T18:09:58.665Z,22.70
2018-04-15T18:12:25.724Z,21.97
2018-04-15T18:14:52.080Z,21.63
2018-04-15T18:17:18.374Z,21.33
2018-04-15T18:19:45.488Z,20.90
2018-04-15T18:22:11.793Z,21.53
2018-04-15T18:24:38.048Z,22.17
2018-04-15T18:27:04.310Z,20.13
2018-04-15T18:29:31.386Z,19.93
2018-04-15T18:31:57.777Z,21.00
2018-04-15T18:34:31.469Z,19.13
2018-04-15T18:36:58.539Z,22.47
2018-04-15T18:39:25.807Z,22.10
2018-04-15T18:41:52.196Z,19.70
2018-04-15T18:44:18.425Z,19.47
2018-04-15T18:46:44.714Z,19.70
2018-04-15T18:49:10.951Z,19.47
2018-04-15T18:51:37.212Z,22.57
2018-04-15T18:54:03.473Z,23.87
2018-04-15T18:56:30.090Z,21.50
2018-04-15T18:58:57.455Z,21.37
2018-04-15T19:01:23.775Z,22.60
2018-04-15T19:03:50.036Z,21.67
2018-04-15T19:06:16.600Z,20.90
2018-04-15T19:08:42.821Z,19.23
2018-04-15T19:11:09.115Z,22.80
2018-04-15T19:13:36.073Z,22.43
2018-04-15T19:16:02.361Z,22.47
2018-04-15T19:18:28.695Z,22.23
2018-04-15T19:20:56.291Z,19.03
2018-04-15T19:23:23.539Z,18.27
2018-04-15T19:25:50.870Z,23.23
2018-04-15T19:28:17.197Z,22.60
2018-04-15T19:30:44.236Z,20.67
2018-04-15T19:33:10.504Z,23.33
2018-04-15T19:35:36.794Z,20.00
2018-04-15T19:38:03.002Z,23.40
2018-04-15T19:40:32.669Z,21.37
2018-04-15T19:42:59.302Z,20.87
2018-04-15T19:45:26.314Z,25.00
2018-04-15T19:47:52.747Z,19.20
2018-04-15T19:50:19.021Z,21.83
2018-04-15T19:52:46.186Z,22.30
2018-04-15T19:55:12.943Z,22.37
2018-04-15T19:57:39.232Z,23.10
2018-04-15T20:00:06.282Z,22.70
2018-04-15T20:02:33.256Z,24.10
2018-04-15T20:05:00.353Z,26.77
2018-04-15T20:07:27.392Z,27.17
2018-04-15T20:09:53.685Z,23.80
2018-04-15T20:12:19.909Z,26.57
2018-04-15T20:14:46.370Z,25.50
2018-04-15T20:17:12.572Z,29.90
2018-04-15T20:19:38.902Z,30.17
2018-04-15T20:22:05.973Z,29.90
2018-04-15T20:24:32.232Z,27.23
2018-04-15T20:26:59.237Z,25.50
2018-04-15T20:29:25.500Z,24.40
2018-04-15T20:31:54.326Z,28.10
2018-04-15T20:34:21.876Z,29.90
2018-04-15T20:36:48.906Z,30.83
2018-04-15T20:39:15.112Z,31.93
2018-04-15T20:41:43.607Z,27.60
2018-04-15T20:44:12.154Z,27.70
2018-04-15T20:46:49.664Z,27.93
2018-04-15T20:49:16.407Z,26.83
2018-04-15T20:51:43.525Z,33.30
2018-04-15T20:54:09.751Z,31.30
2018-04-15T20:56:36.093Z,30.80
2018-04-15T20:59:03.092Z,33.77
2018-04-15T21:01:29.328Z,32.17
2018-04-15T21:03:56.053Z,40.10
2018-04-15T21:06:23.104Z,40.77
2018-04-15T21:08:53.243Z,41.27
2018-04-15T21:11:20.102Z,36.37
2018-04-15T21:13:46.818Z,36.47
2018-04-15T21:16:13.075Z,33.50
2018-04-15T21:18:39.337Z,34.93
2018-04-15T21:21:05.718Z,34.53
2018-04-15T21:23:32.094Z,33.83
2018-04-15T21:25:58.341Z,36.00
2018-04-15T21:28:26.236Z,36.50
2018-04-15T21:30:52.540Z,36.50
2018-04-15T21:33:18.936Z,33.90
2018-04-15T21:35:48.692Z,39.77
2018-04-15T21:38:15.724Z,34.57
2018-04-15T21:40:42.023Z,35.13
2018-04-15T21:43:09.164Z,34.57
2018-04-15T21:45:35.456Z,34.70
2018-04-15T21:48:05.967Z,35.90
2018-04-15T21:50:32.518Z,37.20
2018-04-15T21:52:58.747Z,40.73
2018-04-15T21:55:25.760Z,38.93
2018-04-15T21:57:51.987Z,42.33
2018-04-15T22:00:18.222Z,44.43
2018-04-15T22:02:44.471Z,45.80
2018-04-15T22:05:11.495Z,45.30
2018-04-15T22:07:37.838Z,43.20
2018-04-15T22:10:04.094Z,45.60
2018-04-15T22:12:31.183Z,44.23
2018-04-15T22:14:57.394Z,51.83
2018-04-15T22:17:23.626Z,44.90
2018-04-15T22:19:49.990Z,52.60
2018-04-15T22:22:16.293Z,50.30
2018-04-15T22:24:42.525Z,52.83
2018-04-15T22:27:08.841Z,52.67
2018-04-15T22:29:35.061Z,52.37
2018-04-15T22:32:01.503Z,52.93
2018-04-15T22:34:27.734Z,52.67
2018-04-15T22:36:54.016Z,56.00
2018-04-15T22:39:20.287Z,52.60
2018-04-15T22:41:46.962Z,54.73
2018-04-15T22:44:13.195Z,46.80
2018-04-15T22:46:39.435Z,49.10
2018-04-15T22:52:05.993Z,44.40
2018-04-15T22:54:32.281Z,61.57
2018-04-15T22:57:04.784Z,49.33
2018-04-15T22:59:31.046Z,52.60
2018-04-15T23:01:57.283Z,54.73
2018-04-15T23:04:24.388Z,55.00
2018-04-15T23:06:50.619Z,52.20
2018-04-15T23:09:16.867Z,54.17
2018-04-15T23:11:43.204Z,47.03
2018-04-15T23:14:09.521Z,54.90
2018-04-15T23:16:35.883Z,57.27
2018-04-15T23:19:02.912Z,42.80
2018-04-15T23:21:29.217Z,49.23
2018-04-15T23:23:55.471Z,48.33
2018-04-15T23:26:22.018Z,56.47
2018-04-15T23:28:48.252Z,51.57
2018-04-15T23:31:14.494Z,53.30
2018-04-15T23:33:41.468Z,48.93
2018-04-15T23:36:07.678Z,50.83
2018-04-15T23:38:34.703Z,47.33
2018-04-15T23:41:01.739Z,53.37
2018-04-15T23:43:28.445Z,49.70
2018-04-15T23:45:54.726Z,52.90
2018-04-15T23:48:21.679Z,49.87
2018-04-15T23:50:48.673Z,54.63
2018-04-15T23:53:14.958Z,50.33
2018-04-15T23:55:42.046Z,51.03
2018-04-15T23:58:08.312Z,47.87
